Weather observations for the past three days for
Midland, Midland International Airport
Metric (Imperial)
Date Time (cdt) Wind (kph) Vis. (km) Weather Sky Cond. Temperature (ºC) Relative Humidity Wind Chill (°C) Heat Index (°C) Pressure Precipitation (cm)
Air Dwpt 6 hour altimeter (cm) sea level (mb) 1 hr 3 hr 6 hr
Max. Min.
07 16:53 E 20 G 33 16.09 Mostly Cloudy BKN075 23.9 6.7 33% 25 76.15 1011.9
07 15:53 E 22 G 30 16.09 A Few Clouds FEW080 23.9 6.1 32% 25 76.23 1012.6
07 14:53 SE 7 16.09 Fair CLR 21.7 6.1 36% 76.28 1013.7
07 13:53 Vrbl 7 16.09 Fair CLR 20.6 6.1 39% 76.38 1014.9
07 12:53 Vrbl 7 16.09 Fair CLR 18.9 6.1 19.4 11.1 43% 76.45 1016.0
07 11:53 NE 20 16.09 Fair CLR 17.2 6.1 48% 76.5 1016.8
07 10:53 E 19 16.09 Fair CLR 15 6.1 56% 76.56 1017.5
07 09:53 E 24 16.09 Fair CLR 13.9 6.1 60% 76.58 1017.9
07 08:53 E 26 16.09 Fair CLR 12.2 6.7 69% 76.58 1017.9
07 07:53 E 19 16.09 Fair CLR 11.1 6.7 75% 76.53 1017.1
07 06:53 NE 24 16.09 Fair CLR 11.1 7.2 16.7 11.1 77% 76.5 1016.5
07 05:53 E 28 G 37 16.09 Fair CLR 12.2 6.7 69% 76.48 1016.3
07 04:53 NE 28 G 37 16.09 A Few Clouds FEW027 12.8 6.7 67% 76.45 1016.0
07 03:53 E 31 16.09 Mostly Cloudy BKN023 14.4 6.7 60% 76.4 1015.4
07 02:53 E 26 16.09 Fair CLR 15 7.8 62% 76.35 1014.8
07 01:53 E 19 16.09 Fair CLR 16.1 8.3 60% 76.33 1014.3
07 00:53 E 13 16.09 Fair CLR 17.2 8.3 26.1 17.2 56% 76.25 1013.5
06 23:53 E 13 16.09 Fair CLR 18.3 8.3 52% 76.25 1013.5
06 22:53 E 22 16.09 Light Rain CLR 19.4 6.7 44% 76.15 1012.2
06 21:53 E 30 16.09 Light Rain CLR 20.6 6.1 39% 76.07 1011.0
06 20:53 E 20 16.09 Fair CLR 23.3 5 31% 76 1009.8
06 19:53 SE 20 16.09 Fair CLR 25.6 3.9 25% 25 75.95 1009.0
06 18:53 S 15 G 37 16.09 Fair CLR 26.1 3.9 26.7 17.2 24% 26 75.92 1008.2
06 17:53 SE 13 16.09 Fair CLR 26.1 5 26% 26 75.95 1008.4
06 16:53 E 9 16.09 Fair CLR 24.4 5 29% 25 75.97 1008.8
06 15:53 Vrbl 6 16.09 Fair CLR 22.8 5.6 33% 76.02 1009.7
06 14:53 Vrbl 6 16.09 Fair CLR 21.7 5.6 35% 76.07 1010.3
06 13:53 E 11 16.09 Fair CLR 19.4 6.7 44% 76.12 1011.5
06 12:53 NE 17 16.09 Fair CLR 17.2 7.2 17.2 12.2 52% 76.17 1012.3
06 11:53 NE 20 16.09 Fair CLR 15 6.7 58% 76.2 1012.6
06 10:53 NE 22 16.09 Fair CLR 13.3 6.7 65% 76.2 1012.6
06 09:53 NE 20 6.44 Fair with Haze CLR 12.8 6.1 64% 76.15 1012.1
06 08:53 NE 28 16.09 Fair CLR 12.8 6.7 67% 76.12 1011.4
06 07:53 NE 17 16.09 Fair CLR 13.3 7.8 70% 76 1009.6
06 06:53 NE 15 16.09 Fair CLR 15.6 8.3 21.1 15.6 62% 75.9 1008.0
06 05:53 E 7 16.09 Fair CLR 16.7 8.3 58% 75.9 1007.7
06 04:53 E 24 16.09 Fair CLR 18.9 8.3 50% 75.84 1006.6
06 03:53 E 9 16.09 Fair CLR 20 7.2 44% 75.79 1005.9
06 02:53 SW 7 12.87 Fair CLR 21.1 6.7 39% 75.79 1005.7
06 01:53 W 7 16.09 Fair CLR 19.4 9.4 53% 75.79 1005.9
06 00:53 Calm 16.09 Fair CLR 20 7.8 27.2 20 45% 75.79 1005.8
05 23:53 W 6 16.09 Fair CLR 21.7 5.6 35% 75.77 1005.5
05 22:53 S 11 16.09 Fair CLR 21.7 6.7 38% 75.72 1005.1
05 21:53 SE 13 16.09 Fair CLR 22.8 6.1 34% 75.67 1004.3
05 20:53 NW 9 16.09 Fair CLR 24.4 5 29% 25 75.64 1004.0
05 19:53 NW 22 16.09 Fair CLR 26.1 4.4 25% 26 75.62 1003.9
05 18:53 W 33 16.09 Fair and Breezy CLR 27.2 3.3 30.6 27.2 21% 26 75.67 1004.5
05 17:53 W 41 G 57 16.09 Fair and Breezy CLR 27.8 3.3 21% 27 75.67 1004.3
05 16:53 W 37 G 50 16.09 Fair and Breezy CLR 28.9 2.8 19% 27 75.67 1004.4
05 15:53 W 20 G 41 16.09 Fair CLR 29.4 2.2 17% 28 75.69 1004.3
05 14:53 W 24 G 41 16.09 Fair CLR 28.9 2.2 18% 27 75.72 1004.7
05 13:53 W 33 G 41 16.09 Fair and Breezy CLR 29.4 3.3 19% 28 75.74 1005.0
05 12:53 NW 33 G 44 16.09 Fair and Breezy CLR 30 3.9 30 18.3 19% 28 75.77 1005.1
05 11:53 W 35 G 46 16.09 Fair and Breezy CLR 28.3 3.3 20% 27 75.77 1005.3
05 10:53 W 24 16.09 Fair CLR 26.7 3.3 22% 26 75.77 1005.1
05 09:53 W 15 16.09 Fair CLR 25 6.7 31% 25 75.74 1004.7
05 08:53 W 15 16.09 Fair CLR 21.7 11.1 51% 75.69 1004.4
05 07:53 SW 11 16.09 Fair CLR 18.9 14.4 75% 75.67 1004.1
05 06:53 SW 13 16.09 Fair CLR 18.9 14.4 23.3 18.3 75% 75.62 1003.3
05 05:53 SW 13 16.09 Fair CLR 18.9 15 78% 75.59 1003.2
05 04:53 SW 17 16.09 Fair CLR 20 15 73% 75.59 1002.8
05 03:53 S 19 16.09 Fair CLR 20 15 73% 75.59 1002.8
05 02:53 S 22 16.09 Fair CLR 21.1 14.4 66% 75.59 1002.8
05 01:53 S 24 16.09 Fair CLR 22.2 14.4 61% 75.64 1003.4
05 00:53 S 24 16.09 Fair CLR 23.3 13.3 31.1 23.3 54% 75.64 1003.6
04 23:53 S 24 G 41 16.09 Fair CLR 24.4 11.7 45% 26 75.67 1003.8
04 22:53 SW 20 16.09 Fair CLR 27.8 -0.6 16% 27 75.64 1003.4
04 21:53 SW 24 16.09 Fair CLR 28.3 -1.1 15% 27 75.59 1003.0
04 20:53 SW 22 16.09 Fair CLR 28.9 -1.7 13% 27 75.57 1002.8
04 19:53 SW 33 16.09 Fair and Breezy CLR 30.6 -3.9 10% 29 75.51 1002.4
04 18:53 SW 35 G 48 16.09 Fair and Breezy CLR 31.1 -2.2 32.2 28.3 11% 29 75.57 1003.1
04 17:53 SW 28 G 46 16.09 Fair CLR 31.1 1.1 15% 29 75.59 1003.4
Date Time (cdt) Wind (kph) Vis. (km) Weather Sky Cond. Air Dwpt Max. Min. Relative Humidity Wind Chill (°C) Heat Index (°C) altimeter (cm) sea level (mb) 1 hr 3 hr 6 hr
6 hour
Temperature (ºC) Pressure Precipitation (cm)